Little Swan, Minnesota
Current Conditions -  °F | °C
As of 9:53 PM on Saturday 24 Jan 2015 (Local Time) from KHIB Reporting Station
Overcast Overcast  
Wind Chill: 14°   Ceiling: 1400
Heat Index: 23°   Visibility: 10mi
Dew Point: 13°   Wind: 8mph
Humidity: 65%   Direction: 60°ENE
Pressure: 29.76"   Gusts: NA
Location:  47.4158°N, 93.0053°W
Report Text: KHIB 250353Z AUTO 06007KT 10SM OVC014 M05/M11 A2976 RMK AO2 SLP099 T10501106
Loading
Personal Weather Stations






























Interactive Weather Map New forecast layout! Learn more

10-Day Weather Forecast

Advertisements
Track Severe Weather on mobile